Time;durP1;ratioP1;P1;durP2;ratioP2;P2;SDS_P1;SDS_P2;PMS_P1;PMS_P2;Temp;Humidity;BMP_temperature;BMP_pressure;BME280_temperature;BME280_humidity;BME280_pressure;Samples;Min_cycle;Max_cycle;Signal;HPM_P1;HPM_P2
2022/01/27 00:00:49;;;;;;;22.23;14.02;;;;;;;6.03;100.00;102559.97;5071370;28;20071;-50
2022/01/27 00:03:26;;;;;;;20.50;14.90;;;;;;;6.07;100.00;102566.09;5092689;28;20047;-52
2022/01/27 00:05:59;;;;;;;25.23;13.82;;;;;;;6.07;100.00;102546.03;5092945;28;20028;-53
2022/01/27 00:09:09;;;;;;;21.63;13.68;;;;;;;6.11;100.00;102565.28;5092628;28;20048;-54
2022/01/27 00:11:18;;;;;;;23.63;14.70;;;;;;;5.99;100.00;102520.66;5090529;28;20475;-52
2022/01/27 00:14:00;;;;;;;28.45;14.55;;;;;;;6.08;100.00;102547.81;5089473;28;20058;-50
2022/01/27 00:16:29;;;;;;;19.75;14.82;;;;;;;6.10;100.00;102538.25;5089486;28;20274;-52
2022/01/27 00:18:55;;;;;;;28.02;15.95;;;;;;;6.02;100.00;102534.66;5090465;28;20427;-49
2022/01/27 00:21:22;;;;;;;25.58;16.38;;;;;;;6.13;100.00;102560.94;5092124;28;20093;-51
2022/01/27 00:23:48;;;;;;;22.38;16.00;;;;;;;5.71;100.00;102484.53;5092853;28;20055;-53
2022/01/27 00:26:15;;;;;;;22.27;15.25;;;;;;;5.75;100.00;102496.81;5074364;28;20028;-51
2022/01/27 00:28:41;;;;;;;25.45;16.02;;;;;;;5.88;100.00;102489.19;5092605;28;20406;-50
2022/01/27 00:31:06;;;;;;;26.23;16.00;;;;;;;6.25;100.00;102578.56;5092555;28;20035;-50
2022/01/27 00:33:32;;;;;;;22.63;15.68;;;;;;;6.25;100.00;102549.78;5092439;28;20398;-53
2022/01/27 00:35:57;;;;;;;25.95;18.02;;;;;;;6.19;100.00;102543.59;5091415;28;20062;-51
2022/01/27 00:38:23;;;;;;;26.60;17.23;;;;;;;6.19;100.00;102529.63;5092590;28;20039;-49
2022/01/27 00:40:48;;;;;;;29.58;16.92;;;;;;;6.11;100.00;102518.22;5092325;28;20039;-48
2022/01/27 00:43:14;;;;;;;30.85;19.00;;;;;;;6.24;100.00;102543.66;5090977;28;20119;-48
2022/01/27 00:45:39;;;;;;;26.70;16.83;;;;;;;5.84;100.00;102476.88;5092336;28;20032;-50
2022/01/27 00:48:05;;;;;;;26.00;17.83;;;;;;;6.26;100.00;102551.53;5091418;28;20032;-50
2022/01/27 00:50:34;;;;;;;28.23;18.23;;;;;;;6.24;100.00;102551.50;5091517;28;20111;-51
2022/01/27 00:53:02;;;;;;;27.38;17.65;;;;;;;6.25;100.00;102541.94;5090106;28;20099;-47
2022/01/27 00:55:32;;;;;;;29.85;18.92;;;;;;;5.81;100.00;102489.06;5088792;28;20059;-49
2022/01/27 00:58:11;;;;;;;25.55;17.60;;;;;;;6.14;100.00;102537.44;5090499;28;20154;-51
2022/01/27 01:00:43;;;;;;;34.53;19.13;;;;;;;5.79;100.00;102457.66;5091997;28;20542;-47
2022/01/27 01:03:25;;;;;;;26.38;18.13;;;;;;;6.16;100.00;102506.94;5091971;28;20032;-47
2022/01/27 01:06:12;;;;;;;27.13;18.33;;;;;;;6.25;100.00;102489.63;5091205;28;20492;-49
2022/01/27 01:19:19;;;;;;;31.15;19.02;;;;;;;6.20;100.00;102482.59;5092636;28;20044;-50
2022/01/27 01:32:46;;;;;;;31.83;20.77;;;;;;;5.82;100.00;102442.03;5090800;28;20044;-46
2022/01/27 01:35:11;;;;;;;33.70;22.20;;;;;;;5.43;100.00;102386.69;5092041;28;20032;-49
2022/01/27 01:37:40;;;;;;;31.23;19.40;;;;;;;5.70;100.00;102413.13;5092283;28;20036;-50
2022/01/27 01:40:08;;;;;;;27.73;19.40;;;;;;;5.70;100.00;102407.91;5094300;28;20032;-48
2022/01/27 01:42:34;;;;;;;34.38;19.60;;;;;;;5.78;100.00;102440.22;5094486;28;20071;-48
2022/01/27 01:45:11;;;;;;;31.58;20.17;;;;;;;5.75;100.00;102450.63;5095702;28;20443;-47
2022/01/27 01:47:37;;;;;;;30.40;18.80;;;;;;;5.73;100.00;102449.75;5094712;28;20024;-48
2022/01/27 01:50:05;;;;;;;30.75;18.73;;;;;;;5.18;100.00;102361.06;5092218;28;20040;-50
2022/01/27 01:52:31;;;;;;;32.15;20.05;;;;;;;5.50;100.00;102410.25;5083882;28;20064;-47
2022/01/27 01:54:56;;;;;;;27.95;19.65;;;;;;;5.61;100.00;102436.50;5095559;28;20475;-47
2022/01/27 01:57:22;;;;;;;31.60;19.80;;;;;;;5.49;100.00;102418.94;5094551;28;20038;-47
2022/01/27 01:59:48;;;;;;;33.42;20.88;;;;;;;5.04;100.00;102340.91;5093933;28;20040;-51
2022/01/27 02:02:13;;;;;;;32.58;19.90;;;;;;;5.34;100.00;102410.91;5095134;28;20079;-51
2022/01/27 02:04:39;;;;;;;33.38;21.17;;;;;;;5.37;100.00;102425.75;5095043;28;20047;-47
2022/01/27 02:07:12;;;;;;;27.90;19.02;;;;;;;5.35;100.00;102419.63;5094826;28;20065;-49
2022/01/27 02:10:03;;;;;;;33.80;20.67;;;;;;;5.39;100.00;102397.94;5094479;28;20036;-51
2022/01/27 02:18:07;;;;;;;26.08;19.20;;;;;;;5.34;100.00;102429.19;5092833;28;20132;-49
2022/01/27 02:20:37;;;;;;;29.40;19.23;;;;;;;4.88;100.00;102346.72;5094659;28;20044;-52
2022/01/27 02:23:07;;;;;;;34.45;19.88;;;;;;;5.34;100.00;102438.78;5093506;28;20046;-48
2022/01/27 02:25:33;;;;;;;33.65;19.42;;;;;;;5.22;100.00;102415.09;5094822;28;20032;-47
2022/01/27 02:27:59;;;;;;;31.10;18.70;;;;;;;5.18;100.00;102398.50;5076574;28;20032;-49
2022/01/27 02:30:25;;;;;;;28.90;18.50;;;;;;;5.32;100.00;102432.63;5093755;28;20130;-49
2022/01/27 02:32:52;;;;;;;27.27;19.05;;;;;;;5.30;100.00;102429.13;5094861;28;20395;-47
2022/01/27 02:35:19;;;;;;;28.75;17.73;;;;;;;5.21;100.00;102411.59;5093397;28;20492;-50
2022/01/27 02:37:44;;;;;;;31.98;17.75;;;;;;;5.35;100.00;102427.44;5094678;28;20028;-46
2022/01/27 02:40:11;;;;;;;27.52;17.10;;;;;;;4.97;100.00;102330.31;5076365;28;20376;-47
2022/01/27 02:42:37;;;;;;;33.00;18.42;;;;;;;5.48;100.00;102411.09;5094362;28;20181;-47
2022/01/27 02:45:09;;;;;;;33.88;17.88;;;;;;;5.53;100.00;102412.91;5094198;28;20066;-49
2022/01/27 02:47:35;;;;;;;28.27;15.93;;;;;;;5.62;100.00;102409.53;5093116;28;20085;-48
2022/01/27 02:50:00;;;;;;;27.58;16.73;;;;;;;5.71;100.00;102408.78;5092691;28;20115;-48
2022/01/27 02:52:26;;;;;;;26.20;15.73;;;;;;;5.78;100.00;102406.25;5094493;28;20070;-48
2022/01/27 02:54:52;;;;;;;24.60;15.25;;;;;;;5.82;100.00;102386.25;5092842;28;20478;-49
2022/01/27 02:57:19;;;;;;;21.98;14.70;;;;;;;5.86;100.00;102386.38;5092687;28;20032;-48
2022/01/27 02:59:44;;;;;;;25.70;14.32;;;;;;;5.90;100.00;102376.81;5093111;28;20059;-46
2022/01/27 03:02:10;;;;;;;28.00;15.50;;;;;;;5.96;100.00;102362.06;5094170;28;20480;-49
2022/01/27 03:04:36;;;;;;;23.52;13.18;;;;;;;5.85;100.00;102342.78;5093722;28;20044;-47
2022/01/27 03:07:04;;;;;;;21.23;13.40;;;;;;;5.91;100.00;102355.94;5092844;28;20042;-48
2022/01/27 03:09:31;;;;;;;24.15;12.10;;;;;;;5.54;100.00;102283.22;5093944;28;20036;-48
2022/01/27 03:11:59;;;;;;;26.88;14.20;;;;;;;5.92;100.00;102333.28;5093725;28;20545;-47
2022/01/27 03:14:25;;;;;;;27.67;13.77;;;;;;;5.96;100.00;102342.91;5092806;28;20077;-48
2022/01/27 03:16:57;;;;;;;28.17;13.73;;;;;;;5.88;100.00;102327.16;5092360;28;20376;-48
2022/01/27 03:19:22;;;;;;;22.80;12.73;;;;;;;5.53;100.00;102251.00;5093716;28;20055;-46
2022/01/27 03:21:48;;;;;;;24.67;12.65;;;;;;;6.01;100.00;102336.00;5093891;28;20067;-59
2022/01/27 03:24:14;;;;;;;20.33;12.77;;;;;;;5.92;100.00;102322.84;5093679;28;20028;-51
2022/01/27 03:26:41;;;;;;;23.60;12.55;;;;;;;5.93;100.00;102320.22;5092569;28;20447;-52
2022/01/27 03:29:06;;;;;;;26.00;13.30;;;;;;;5.83;100.00;102296.56;5092784;28;20032;-47
2022/01/27 03:31:31;;;;;;;25.77;12.75;;;;;;;5.92;100.00;102318.50;5093233;28;20119;-47
2022/01/27 03:33:57;;;;;;;24.27;13.15;;;;;;;5.90;100.00;102320.19;5091629;28;20498;-49
2022/01/27 03:36:23;;;;;;;25.15;12.82;;;;;;;5.77;100.00;102279.09;5091595;28;20071;-48
2022/01/27 03:38:49;;;;;;;27.73;11.95;;;;;;;5.58;100.00;102231.00;5092266;28;20613;-47
2022/01/27 03:41:19;;;;;;;29.58;11.48;;;;;;;6.03;100.00;102298.56;5093353;28;20123;-50
2022/01/27 03:43:46;;;;;;;22.73;10.98;;;;;;;5.93;100.00;102267.94;5092201;28;20042;-47
2022/01/27 03:46:11;;;;;;;23.13;12.23;;;;;;;6.03;100.00;102282.88;5093449;28;20032;-48
2022/01/27 03:48:36;;;;;;;29.17;12.95;;;;;;;5.63;100.00;102197.97;5093452;28;20034;-47
2022/01/27 03:51:03;;;;;;;25.85;12.45;;;;;;;5.68;100.00;102196.28;5093243;28;20474;-48
2022/01/27 03:53:28;;;;;;;25.02;11.95;;;;;;;6.11;100.00;102275.97;5092963;28;20082;-48
2022/01/27 03:55:53;;;;;;;26.42;12.65;;;;;;;5.64;100.00;102167.50;5093055;28;20036;-50
2022/01/27 03:58:19;;;;;;;28.45;12.55;;;;;;;6.21;100.00;102264.75;5093134;28;20521;-45
2022/01/27 04:00:44;;;;;;;26.40;12.40;;;;;;;5.88;100.00;102200.84;5074605;28;20044;-51
2022/01/27 04:03:12;;;;;;;24.75;12.57;;;;;;;5.86;100.00;102190.38;5092939;28;20039;-49
2022/01/27 04:05:41;;;;;;;29.45;13.35;;;;;;;6.30;100.00;102263.06;5092960;28;20074;-49
2022/01/27 04:08:09;;;;;;;31.15;13.55;;;;;;;6.30;100.00;102269.16;5092814;28;20046;-47
2022/01/27 04:10:35;;;;;;;32.78;13.45;;;;;;;6.32;100.00;102274.38;5092997;28;20032;-48
2022/01/27 04:13:01;;;;;;;20.23;12.63;;;;;;;6.34;100.00;102268.31;5091756;28;20032;-49
2022/01/27 04:15:27;;;;;;;31.60;13.07;;;;;;;5.94;100.00;102169.53;5091709;28;20036;-48
2022/01/27 04:17:53;;;;;;;25.33;12.93;;;;;;;6.26;100.00;102212.47;5091592;28;20387;-51
2022/01/27 04:20:19;;;;;;;22.33;12.70;;;;;;;5.96;100.00;102166.06;5092624;28;20051;-47
2022/01/27 04:22:44;;;;;;;28.92;13.70;;;;;;;6.11;100.00;102173.13;5091421;28;20043;-48
2022/01/27 04:25:11;;;;;;;22.85;13.00;;;;;;;6.05;100.00;102155.66;5092743;28;20036;-47
2022/01/27 04:27:39;;;;;;;27.33;13.27;;;;;;;6.14;100.00;102162.69;5092416;28;20036;-49
2022/01/27 04:30:11;;;;;;;24.42;11.90;;;;;;;6.23;100.00;102161.03;5074766;28;20501;-48
2022/01/27 04:32:43;;;;;;;27.83;12.85;;;;;;;6.60;100.00;102222.28;5092680;28;20024;-47
2022/01/27 04:35:13;;;;;;;25.00;12.75;;;;;;;6.49;100.00;102207.38;5092225;28;20024;-51
2022/01/27 04:37:43;;;;;;;34.03;13.70;;;;;;;6.27;100.00;102158.44;5092638;28;20032;-52
2022/01/27 04:40:14;;;;;;;28.70;12.88;;;;;;;6.25;100.00;102152.34;5092507;28;20043;-49
2022/01/27 04:42:58;;;;;;;25.92;12.45;;;;;;;6.73;100.00;102237.19;5092709;28;20123;-47
2022/01/27 04:45:29;;;;;;;23.92;12.68;;;;;;;6.71;100.00;102220.56;5092415;28;20097;-49
2022/01/27 04:48:04;;;;;;;;;;;;;;;6.75;100.00;102237.19;5091484;28;20421;-49
2022/01/27 04:50:29;;;;;;;22.15;12.10;;;;;;;6.67;100.00;102229.31;5092438;28;19912;-50
2022/01/27 04:52:56;;;;;;;28.35;11.40;;;;;;;6.77;100.00;102240.69;5092396;28;20368;-50
2022/01/27 04:55:23;;;;;;;30.55;13.02;;;;;;;6.73;100.00;102244.16;5091143;28;20527;-48
2022/01/27 04:57:55;;;;;;;25.00;11.45;;;;;;;6.33;100.00;102175.03;5092217;28;20028;-48
2022/01/27 05:00:21;;;;;;;33.25;12.65;;;;;;;6.36;100.00;102156.75;5075244;28;20040;-46
2022/01/27 05:02:54;;;;;;;22.98;11.98;;;;;;;6.54;100.00;102192.56;5092346;28;20028;-49
2022/01/27 05:05:21;;;;;;;24.25;11.57;;;;;;;6.83;100.00;102224.16;5090910;28;20071;-50
2022/01/27 05:07:54;;;;;;;24.42;12.90;;;;;;;6.80;100.00;102224.97;5092051;28;20064;-48
2022/01/27 05:10:23;;;;;;;34.33;13.15;;;;;;;6.84;100.00;102218.03;5092199;28;20032;-49
2022/01/27 05:12:51;;;;;;;29.60;12.68;;;;;;;6.43;100.00;102148.06;5092626;28;20060;-48
2022/01/27 05:15:18;;;;;;;26.15;11.88;;;;;;;6.84;100.00;102216.28;5096435;28;20395;-46
2022/01/27 05:17:43;;;;;;;23.85;11.93;;;;;;;6.86;100.00;102226.78;5096389;28;20394;-51
2022/01/27 05:20:09;;;;;;;26.17;11.90;;;;;;;6.85;100.00;102230.25;5096227;28;20032;-49
2022/01/27 05:22:35;;;;;;;29.70;13.10;;;;;;;6.44;100.00;102154.16;5095912;28;20530;-49
2022/01/27 05:25:00;;;;;;;22.63;11.27;;;;;;;6.80;100.00;102196.19;5095743;28;20103;-52
2022/01/27 05:27:26;;;;;;;20.13;12.05;;;;;;;6.88;100.00;102217.19;5095777;28;20043;-52
2022/01/27 05:29:52;;;;;;;27.90;11.55;;;;;;;6.93;100.00;102212.84;5096055;28;20475;-48
2022/01/27 05:32:18;;;;;;;31.00;12.90;;;;;;;6.95;100.00;102196.28;5095848;28;20040;-49
2022/01/27 05:34:44;;;;;;;23.02;10.80;;;;;;;6.92;100.00;102196.25;5095863;28;20032;-48
2022/01/27 05:37:09;;;;;;;29.35;12.20;;;;;;;6.93;100.00;102189.28;5095731;28;20042;-49
2022/01/27 05:39:35;;;;;;;24.95;11.35;;;;;;;6.96;100.00;102200.66;5095732;28;20415;-47
2022/01/27 05:42:00;;;;;;;21.83;11.07;;;;;;;6.98;100.00;102201.53;5095448;28;20360;-48
2022/01/27 05:44:25;;;;;;;30.35;11.77;;;;;;;6.55;100.00;102110.63;5095613;28;20324;-52
2022/01/27 05:46:51;;;;;;;24.95;10.70;;;;;;;7.04;100.00;102195.44;5095748;28;20032;-52
2022/01/27 05:49:16;;;;;;;29.70;12.27;;;;;;;7.04;100.00;102188.44;5095519;28;20032;-48
2022/01/27 05:51:41;;;;;;;23.42;10.98;;;;;;;7.06;100.00;102175.38;5095411;28;20119;-48
2022/01/27 05:54:07;;;;;;;24.25;12.02;;;;;;;6.63;100.00;102104.56;5095280;28;20056;-47
2022/01/27 05:56:32;;;;;;;25.10;11.63;;;;;;;7.06;100.00;102186.75;5095344;28;20048;-47
2022/01/27 05:58:57;;;;;;;24.33;11.50;;;;;;;7.07;100.00;102178.00;5095301;28;20368;-46
2022/01/27 06:01:23;;;;;;;26.10;11.27;;;;;;;7.12;100.00;102168.41;5095384;28;20040;-46
2022/01/27 06:03:48;;;;;;;26.33;11.13;;;;;;;6.71;100.00;102092.38;5095356;28;20052;-48
2022/01/27 06:06:13;;;;;;;23.58;11.60;;;;;;;6.67;100.00;102092.38;5095206;28;20028;-51
2022/01/27 06:08:39;;;;;;;26.75;11.77;;;;;;;7.16;100.00;102161.44;5095112;28;20060;-49
2022/01/27 06:11:05;;;;;;;24.42;12.07;;;;;;;7.18;100.00;102157.94;5094853;28;20044;-49
2022/01/27 06:13:31;;;;;;;30.05;11.93;;;;;;;7.03;100.00;102128.25;5093644;28;20028;-48
2022/01/27 06:15:56;;;;;;;28.05;11.73;;;;;;;7.21;100.00;102152.72;5095139;28;20297;-51
2022/01/27 06:18:21;;;;;;;23.95;11.32;;;;;;;6.84;100.00;102100.25;5094907;28;20031;-48
2022/01/27 06:20:47;;;;;;;22.20;10.30;;;;;;;7.24;100.00;102159.69;5094694;28;20032;-48
2022/01/27 06:23:13;;;;;;;25.42;10.60;;;;;;;7.15;100.00;102146.63;5094854;28;20068;-52
2022/01/27 06:25:38;;;;;;;24.25;10.63;;;;;;;7.27;100.00;102150.09;5093113;28;20074;-53
2022/01/27 06:28:04;;;;;;;29.35;10.52;;;;;;;7.23;100.00;102157.97;5094897;28;20055;-50
2022/01/27 06:30:29;;;;;;;25.88;11.40;;;;;;;7.28;100.00;102151.00;5094780;28;20039;-51
2022/01/27 06:32:55;;;;;;;28.13;11.05;;;;;;;7.30;100.00;102168.44;5094381;28;20028;-49
2022/01/27 06:35:20;;;;;;;24.65;10.77;;;;;;;7.23;100.00;102124.81;5094642;28;20104;-49
2022/01/27 06:37:47;;;;;;;20.70;10.70;;;;;;;6.95;100.00;102078.47;5094464;28;20494;-49
2022/01/27 06:40:14;;;;;;;25.33;10.23;;;;;;;6.93;100.00;102072.38;5094434;28;20064;-49
2022/01/27 06:42:40;;;;;;;24.95;9.63;;;;;;;7.41;100.00;102152.78;5094632;28;20127;-48
2022/01/27 06:45:06;;;;;;;20.02;10.90;;;;;;;7.25;100.00;102140.50;5093112;28;20030;-48
2022/01/27 06:47:32;;;;;;;20.35;10.30;;;;;;;7.38;100.00;102145.75;5094278;28;20510;-49
2022/01/27 06:49:57;;;;;;;27.23;10.48;;;;;;;7.28;100.00;102141.41;5094485;28;20119;-51
2022/01/27 06:52:26;;;;;;;24.20;9.77;;;;;;;7.33;100.00;102142.25;5094401;28;20036;-46
2022/01/27 06:54:52;;;;;;;25.83;10.65;;;;;;;7.37;100.00;102153.63;5092313;28;20032;-51
2022/01/27 06:57:17;;;;;;;30.25;11.23;;;;;;;6.96;100.00;102089.81;5086935;28;20073;-51
2022/01/27 06:59:43;;;;;;;28.40;11.00;;;;;;;7.17;100.00;102123.91;5093947;28;20099;-50
2022/01/27 07:02:08;;;;;;;35.13;12.13;;;;;;;6.80;100.00;102105.47;5093371;28;20142;-48
2022/01/27 07:04:34;;;;;;;29.10;12.05;;;;;;;7.21;100.00;102162.31;5092831;28;20044;-50
2022/01/27 07:06:59;;;;;;;28.33;11.63;;;;;;;7.11;100.00;102153.59;5093891;28;20390;-52
2022/01/27 07:09:24;;;;;;;29.17;11.88;;;;;;;6.86;100.00;102125.56;5092624;28;20039;-50
2022/01/27 07:11:50;;;;;;;32.50;12.20;;;;;;;6.61;100.00;102084.50;5093954;28;20032;-50
2022/01/27 07:14:15;;;;;;;29.23;11.50;;;;;;;7.03;100.00;102163.16;5093736;28;20471;-50
2022/01/27 07:16:42;;;;;;;33.50;13.10;;;;;;;6.95;100.00;102159.63;5091662;28;20054;-51
2022/01/27 07:19:07;;;;;;;38.45;13.35;;;;;;;6.85;100.00;102155.25;5093529;28;20036;-52
2022/01/27 07:21:33;;;;;;;32.25;13.10;;;;;;;6.51;100.00;102073.09;5092357;28;20110;-54
2022/01/27 07:23:58;;;;;;;32.03;13.20;;;;;;;6.84;100.00;102140.41;5092832;28;20058;-55
2022/01/27 07:26:26;;;;;;;32.58;11.93;;;;;;;6.83;100.00;102156.94;5092031;28;20036;-52
2022/01/27 07:28:52;;;;;;;33.38;13.23;;;;;;;6.78;100.00;102148.22;5092680;28;20032;-53
2022/01/27 07:31:18;;;;;;;35.28;13.65;;;;;;;6.72;100.00;102148.19;5091983;28;20071;-53
2022/01/27 07:33:44;;;;;;;36.80;13.63;;;;;;;6.60;100.00;102135.94;5090566;28;20032;-54
2022/01/27 07:36:09;;;;;;;37.55;13.77;;;;;;;6.78;100.00;102156.06;5092392;28;20032;-49
2022/01/27 07:38:35;;;;;;;35.05;13.88;;;;;;;6.80;100.00;102163.06;5092480;28;20521;-51
2022/01/27 07:41:00;;;;;;;35.80;13.38;;;;;;;6.46;100.00;102103.63;5094204;28;20032;-50
2022/01/27 07:43:26;;;;;;;33.40;14.00;;;;;;;6.83;100.00;102171.81;5092619;28;20368;-50
2022/01/27 07:45:51;;;;;;;36.35;13.65;;;;;;;6.83;100.00;102158.72;5093173;28;20032;-48
2022/01/27 07:48:17;;;;;;;36.40;13.88;;;;;;;6.83;100.00;102172.66;5093176;28;20480;-50
2022/01/27 07:50:42;;;;;;;36.65;14.13;;;;;;;6.63;100.00;102122.88;5091153;28;20476;-50
2022/01/27 07:53:08;;;;;;;38.65;14.30;;;;;;;6.44;100.00;102092.28;5092863;28;20035;-49
2022/01/27 07:55:33;;;;;;;33.85;13.77;;;;;;;6.41;100.00;102088.78;5091826;28;20395;-51
2022/01/27 07:57:58;;;;;;;37.88;14.10;;;;;;;6.84;100.00;102171.81;5091903;28;20073;-51
2022/01/27 08:00:24;;;;;;;36.97;13.70;;;;;;;6.87;100.00;102163.09;5093050;28;20094;-49
2022/01/27 08:02:49;;;;;;;39.08;13.90;;;;;;;6.89;100.00;102162.22;5091454;28;20035;-51
2022/01/27 08:05:15;;;;;;;42.70;13.82;;;;;;;6.91;100.00;102170.09;5092660;28;20398;-52
2022/01/27 08:07:40;;;;;;;41.63;13.75;;;;;;;6.48;100.00;102106.25;5092529;28;20109;-52
2022/01/27 08:10:06;;;;;;;37.35;14.25;;;;;;;6.80;100.00;102151.72;5092858;28;20032;-48
2022/01/27 08:12:31;;;;;;;37.00;14.38;;;;;;;6.93;100.00;102169.22;5092819;28;20066;-52
2022/01/27 08:14:56;;;;;;;40.17;13.52;;;;;;;6.47;100.00;102094.91;5091385;28;20047;-50
2022/01/27 08:17:22;;;;;;;47.97;14.68;;;;;;;6.89;100.00;102169.22;5092751;28;20047;-53
2022/01/27 08:19:47;;;;;;;40.15;13.90;;;;;;;6.86;100.00;102164.81;5092716;28;20039;-52
2022/01/27 08:22:13;;;;;;;39.45;14.07;;;;;;;6.58;100.00;102114.13;5074236;28;20035;-49
2022/01/27 08:24:39;;;;;;;37.95;14.95;;;;;;;6.42;100.00;102074.84;5092455;28;20027;-50
2022/01/27 08:27:06;;;;;;;45.60;14.73;;;;;;;6.65;100.00;102105.47;5091229;28;20036;-53
2022/01/27 08:29:40;;;;;;;34.20;13.88;;;;;;;6.68;100.00;102104.59;5092511;28;20028;-49
2022/01/27 08:32:09;;;;;;;42.28;14.65;;;;;;;7.03;100.00;102165.78;5092152;28;20118;-47
2022/01/27 08:34:42;;;;;;;48.13;14.15;;;;;;;7.04;100.00;102169.25;5092372;28;20115;-50
2022/01/27 08:37:07;;;;;;;37.60;14.68;;;;;;;7.04;100.00;102175.38;5092723;28;20094;-52
2022/01/27 08:39:33;;;;;;;40.40;13.55;;;;;;;6.66;100.00;102104.56;5092660;28;20036;-49
2022/01/27 08:41:58;;;;;;;40.15;13.88;;;;;;;6.62;100.00;102105.44;5092217;28;20390;-52
2022/01/27 08:44:24;;;;;;;32.08;13.25;;;;;;;6.71;100.00;102105.44;5092389;28;20509;-48
2022/01/27 08:46:50;;;;;;;39.00;13.75;;;;;;;6.94;100.00;102141.31;5091242;28;20065;-48
2022/01/27 08:49:18;;;;;;;40.45;13.38;;;;;;;6.64;100.00;102082.75;5091070;28;20428;-51
2022/01/27 08:51:43;;;;;;;31.98;13.65;;;;;;;7.02;100.00;102142.19;5090736;28;20567;-52
2022/01/27 08:54:08;;;;;;;31.10;13.77;;;;;;;6.84;100.00;102115.97;5074095;28;20123;-52
2022/01/27 08:56:34;;;;;;;41.70;15.27;;;;;;;6.70;100.00;102082.78;5091913;28;20142;-51
2022/01/27 08:58:59;;;;;;;35.78;13.85;;;;;;;7.11;100.00;102164.06;5092236;28;20081;-49
2022/01/27 09:01:26;;;;;;;45.65;13.77;;;;;;;6.71;100.00;102096.75;5092056;28;20039;-51
2022/01/27 09:03:52;;;;;;;44.60;13.38;;;;;;;7.14;100.00;102165.81;5091817;28;20518;-54
2022/01/27 09:06:20;;;;;;;35.72;13.48;;;;;;;6.75;100.00;102098.50;5092308;28;20032;-48
2022/01/27 09:08:47;;;;;;;31.70;12.75;;;;;;;7.05;100.00;102150.94;5092239;28;20501;-47
2022/01/27 09:11:13;;;;;;;36.92;13.45;;;;;;;7.12;100.00;102157.91;5091047;28;20432;-50
2022/01/27 09:13:38;;;;;;;36.92;12.73;;;;;;;6.78;100.00;102090.66;5092056;28;20036;-51
2022/01/27 09:16:05;;;;;;;34.25;12.77;;;;;;;6.78;100.00;102088.03;5090774;28;20066;-54
2022/01/27 09:18:32;;;;;;;37.53;12.65;;;;;;;7.22;100.00;102154.47;5091892;28;20024;-50
2022/01/27 09:21:00;;;;;;;36.72;11.68;;;;;;;7.21;100.00;102150.09;5090886;28;20043;-48
2022/01/27 09:23:25;;;;;;;39.55;13.93;;;;;;;7.22;100.00;102136.13;5092097;28;20054;-49
2022/01/27 09:25:55;;;;;;;33.15;11.13;;;;;;;7.28;100.00;102130.03;5073393;28;20040;-46
2022/01/27 09:28:20;;;;;;;31.95;11.95;;;;;;;7.19;100.00;102093.34;5091854;28;20028;-49
2022/01/27 09:30:46;;;;;;;28.10;11.10;;;;;;;7.41;100.00;102130.94;5091601;28;20030;-52
2022/01/27 09:33:13;;;;;;;30.63;10.90;;;;;;;7.58;100.00;102150.16;5090079;28;20043;-51
2022/01/27 09:35:38;;;;;;;30.13;11.32;;;;;;;6.84;100.00;102008.66;5091455;28;20046;-56
2022/01/27 09:38:04;;;;;;;27.88;10.65;;;;;;;7.70;100.00;102142.31;5091398;28;20020;-55
2022/01/27 09:40:30;;;;;;;31.55;11.15;;;;;;;7.71;100.00;102157.13;5091644;28;20043;-56
2022/01/27 09:42:56;;;;;;;32.67;10.70;;;;;;;7.50;100.00;102112.59;5091434;28;20539;-55
2022/01/27 09:45:23;;;;;;;24.77;11.10;;;;;;;7.79;100.00;102156.25;5091499;28;20039;-51
2022/01/27 09:48:00;;;;;;;32.20;10.07;;;;;;;7.43;100.00;102098.63;5091656;28;20036;-52
2022/01/27 09:53:14;;;;;;;27.00;10.15;;;;;;;7.46;100.00;102096.00;5091572;28;20135;-54
2022/01/27 09:55:40;;;;;;;27.83;10.32;;;;;;;7.88;100.00;102171.16;5090008;28;20089;-49
2022/01/27 09:58:06;;;;;;;32.22;9.68;;;;;;;7.51;100.00;102102.13;5091203;28;20043;-54
2022/01/27 10:00:31;;;;;;;32.38;10.10;;;;;;;7.86;100.00;102152.78;5093192;28;20055;-54
2022/01/27 10:03:21;;;;;;;24.63;8.98;;;;;;;8.00;100.00;102178.97;5095031;28;20472;-51
2022/01/27 10:05:46;;;;;;;24.75;8.90;;;;;;;7.98;100.00;102170.25;5094469;28;20072;-52
2022/01/27 10:08:18;;;;;;;28.08;9.38;;;;;;;7.59;100.00;102089.88;5094697;28;20074;-55
2022/01/27 10:10:46;;;;;;;24.02;9.38;;;;;;;8.13;100.00;102172.88;5094705;28;20028;-55
2022/01/27 10:13:38;;;;;;;28.50;9.60;;;;;;;8.19;100.00;102174.59;5093826;28;20035;-53
2022/01/27 10:16:06;;;;;;;20.83;9.00;;;;;;;8.19;100.00;102185.09;5094721;28;20050;-53
2022/01/27 10:18:35;;;;;;;22.83;9.63;;;;;;;8.14;100.00;102174.63;5094795;28;20032;-56
2022/01/27 10:21:05;;;;;;;22.45;8.93;;;;;;;8.06;100.00;102180.72;5093305;28;20120;-54
2022/01/27 10:23:33;;;;;;;24.87;9.03;;;;;;;7.70;100.00;102109.13;5093737;28;20024;-51
2022/01/27 10:26:14;;;;;;;25.33;7.93;;;;;;;8.09;100.00;102184.22;5094623;28;20036;-56
2022/01/27 10:31:19;;;;;;;28.15;9.10;;;;;;;7.78;100.00;102137.94;5094440;28;20044;-54
2022/01/27 10:33:58;;;;;;;23.90;8.27;;;;;;;8.04;100.00;102192.97;5094631;28;20028;-54
2022/01/27 10:36:26;;;;;;;24.00;8.25;;;;;;;8.05;100.00;102195.59;5093301;28;20328;-57
2022/01/27 10:38:57;;;;;;;22.05;8.10;;;;;;;8.15;100.00;102199.94;5093084;28;20133;-58
2022/01/27 10:41:24;;;;;;;25.65;8.98;;;;;;;7.76;100.00;102116.94;5092930;28;20188;-53
2022/01/27 10:43:50;;;;;;;29.98;9.98;;;;;;;8.19;100.00;102190.34;5092726;28;20024;-55
2022/01/27 10:46:25;;;;;;;23.30;8.38;;;;;;;8.13;100.00;102183.34;5094356;28;20046;-55
2022/01/27 10:49:02;;;;;;;21.92;7.35;;;;;;;7.85;100.00;102127.44;5094305;28;20176;-58
2022/01/27 10:51:41;;;;;;;21.23;7.57;;;;;;;8.22;100.00;102178.09;5094147;28;20107;-54
2022/01/27 10:54:18;;;;;;;23.25;7.20;;;;;;;8.31;100.00;102193.88;5093968;28;20309;-52
2022/01/27 10:56:44;;;;;;;25.20;7.20;;;;;;;8.40;100.00;102201.72;5094034;28;20398;-57
2022/01/27 10:59:11;;;;;;;21.98;7.38;;;;;;;8.43;100.00;102187.72;5094512;28;20032;-56
2022/01/27 11:01:39;;;;;;;19.45;7.03;;;;;;;8.29;100.00;102155.41;5092793;28;20028;-57
2022/01/27 11:04:07;;;;;;;21.70;6.57;;;;;;;8.35;100.00;102168.47;5093640;28;20115;-54
2022/01/27 11:06:34;;;;;;;21.40;6.68;;;;;;;8.63;100.00;102211.28;5093777;28;20105;-55
2022/01/27 11:09:07;;;;;;;25.70;7.78;;;;;;;8.60;100.00;102203.41;5075741;28;20032;-52
2022/01/27 11:11:32;;;;;;;19.77;6.22;;;;;;;8.63;100.00;102200.78;5091537;28;20101;-55
2022/01/27 11:13:59;;;;;;;15.93;6.60;;;;;;;8.21;100.00;102104.66;5093806;28;20421;-54
2022/01/27 11:16:31;;;;;;;24.35;6.75;;;;;;;8.70;100.00;102199.91;5092410;28;20089;-52
2022/01/27 11:19:12;;;;;;;18.75;5.95;;;;;;;8.77;100.00;102193.72;5092207;28;20063;-55
2022/01/27 11:21:40;;;;;;;19.95;5.57;;;;;;;8.79;100.00;102191.97;5093630;28;20072;-54
2022/01/27 11:24:14;;;;;;;18.63;6.88;;;;;;;8.82;100.00;102197.19;5092175;28;20042;-56
2022/01/27 11:26:40;;;;;;;17.60;5.82;;;;;;;8.78;100.00;102199.00;5092209;28;20112;-56
2022/01/27 11:29:07;;;;;;;20.40;6.75;;;;;;;8.38;100.00;102118.63;5092101;28;20036;-54
2022/01/27 11:31:48;;;;;;;21.77;5.97;;;;;;;8.89;100.00;102181.44;5092092;28;20020;-57
2022/01/27 11:34:13;;;;;;;18.02;5.80;;;;;;;8.98;100.00;102191.03;5092209;28;20028;-56
2022/01/27 11:36:59;;;;;;;19.40;6.65;;;;;;;9.11;100.00;102178.72;5092027;28;20035;-57
2022/01/27 11:39:47;;;;;;;20.35;5.88;;;;;;;9.18;100.00;102180.41;5093075;28;20497;-56
2022/01/27 11:42:13;;;;;;;16.95;5.43;;;;;;;9.16;100.00;102183.06;5092895;28;20123;-56
2022/01/27 11:44:39;;;;;;;27.52;6.40;;;;;;;8.79;100.00;102115.81;5093092;28;20124;-57
2022/01/27 11:47:08;;;;;;;15.50;5.60;;;;;;;9.27;100.00;102189.13;5093034;28;20042;-56